TimeEST,TemperatureF,Dew PointF,Humidity,Sea Level PressureIn,VisibilityMPH,Wind Direction,Wind SpeedMPH,Gust SpeedMPH,PrecipitationIn,Events,Conditions,WindDirDegrees,DateUTC
12:53 AM,43.0,41.0,93,29.96,10.0,Calm,Calm,-,N/A,,Clear,0,2013-02-24 05:53:00
1:53 AM,39.9,37.9,93,29.97,10.0,NNW,4.6,-,N/A,,Clear,330,2013-02-24 06:53:00
2:53 AM,39.0,37.0,93,29.98,10.0,NW,3.5,-,N/A,,Clear,320,2013-02-24 07:53:00
3:53 AM,37.0,35.1,93,29.98,10.0,Calm,Calm,-,N/A,,Clear,0,2013-02-24 08:53:00
4:53 AM,36.0,35.1,97,29.98,8.0,Calm,Calm,-,N/A,,Clear,0,2013-02-24 09:53:00
5:53 AM,35.1,34.0,96,30.01,7.0,Calm,Calm,-,N/A,,Clear,0,2013-02-24 10:53:00
6:53 AM,35.1,33.1,92,30.03,7.0,Calm,Calm,-,N/A,,Clear,0,2013-02-24 11:53:00
7:53 AM,35.1,32.0,89,30.06,10.0,Calm,Calm,-,N/A,,Clear,0,2013-02-24 12:53:00
8:53 AM,41.0,30.9,67,30.07,10.0,North,12.7,-,N/A,,Clear,360,2013-02-24 13:53:00
9:53 AM,44.1,30.0,58,30.09,10.0,NE,9.2,-,N/A,,Clear,40,2013-02-24 14:53:00
10:53 AM,46.9,30.0,52,30.09,10.0,NNE,6.9,-,N/A,,Clear,30,2013-02-24 15:53:00
11:53 AM,50.0,30.0,46,30.09,10.0,North,5.8,-,N/A,,Clear,10,2013-02-24 16:53:00
12:53 PM,52.0,28.9,41,30.08,10.0,NW,6.9,-,N/A,,Clear,320,2013-02-24 17:53:00
1:53 PM,55.9,30.0,37,30.05,10.0,NNE,8.1,-,N/A,,Clear,20,2013-02-24 18:53:00
2:53 PM,59.0,30.0,33,30.04,10.0,Variable,5.8,-,N/A,,Clear,0,2013-02-24 19:53:00
3:53 PM,60.1,28.0,30,30.01,10.0,North,8.1,-,N/A,,Clear,360,2013-02-24 20:53:00
4:53 PM,59.0,28.0,31,30.01,10.0,ENE,4.6,-,N/A,,Clear,70,2013-02-24 21:53:00
5:53 PM,57.9,27.0,31,30.02,10.0,North,5.8,-,N/A,,Clear,10,2013-02-24 22:53:00
6:53 PM,55.9,28.0,34,30.03,10.0,Calm,Calm,-,N/A,,Clear,0,2013-02-24 23:53:00
7:53 PM,46.9,35.1,63,30.04,10.0,Calm,Calm,-,N/A,,Clear,0,2013-02-25 00:53:00
8:53 PM,44.1,35.1,71,30.04,10.0,Calm,Calm,-,N/A,,Clear,0,2013-02-25 01:53:00
9:53 PM,42.1,35.1,76,30.04,10.0,Calm,Calm,-,N/A,,Clear,0,2013-02-25 02:53:00
10:53 PM,39.9,35.1,83,30.04,10.0,North,4.6,-,N/A,,Clear,10,2013-02-25 03:53:00
11:53 PM,44.1,28.0,53,30.03,10.0,NNE,6.9,-,N/A,,Clear,20,2013-02-25 04:53:00